Thursday, April 26, 2018, 4:44 PM EDT
Back to Local

KBTP, Butler, Butler County Airport/k W Scholter Field

Location: Renfrew, PA, United States Lat: 40.783
Local Time: 4:44 PM EDT (20:44 GMT) Lon: -79.95
Time Zone: US/Eastern Elev: 1246 ft

Show me the last for .
Show Decoded

2018-04-26 15:56 METAR KBTP 261956Z AUTO 32006KT 10SM CLR 14/02 A2988 RMK AO2 SLP128 T01440022 =
2018-04-26 14:56 METAR KBTP 261856Z AUTO 26007KT 10SM FEW047 14/03 A2991 RMK AO2 SLP137 T01390028
                 =
2018-04-26 13:56 METAR KBTP 261756Z AUTO 21007KT 180V250 10SM FEW041 12/02 A2992 RMK AO2 SLP143
                 6//// T01220022 10128 20039 58004 =
2018-04-26 12:56 METAR KBTP 261656Z AUTO 26010KT 10SM BKN041 12/03 A2994 RMK AO2 SLP148 T01220028
                 =
2018-04-26 11:56 METAR KBTP 261556Z AUTO 25005KT 10SM BKN033 11/02 A2994 RMK AO2 SLP150 T01110022
                 =
2018-04-26 10:56 METAR KBTP 261456Z AUTO VRB03KT 10SM FEW031 09/02 A2994 RMK AO2 SLP148 6////
                 T00890017 53001 =
2018-04-26 09:56 METAR KBTP 261356Z AUTO VRB03KT 10SM CLR 07/01 A2993 RMK AO2 SLP147 P0002
                 T00720011 =
2018-04-26 08:56 METAR KBTP 261256Z AUTO VRB03KT 10SM CLR 06/01 A2994 RMK AO2 SLP149 T00560006 =
2018-04-26 07:56 METAR KBTP 261156Z AUTO 28005KT 10SM OVC033 04/01 A2993 RMK AO2 SLP149 70004
                 T00390006 10044 20028 53013 =
2018-04-26 06:56 METAR KBTP 261056Z AUTO 28004KT 10SM OVC033 03/01 A2992 RMK AO2 SLP145 T00330006
                 =
2018-04-26 05:56 METAR KBTP 260956Z AUTO 27004KT 10SM FEW017 OVC033 03/01 A2991 RMK AO2 SLP139
                 T00330006 =
2018-04-26 05:45 METAR KBTP 260945Z AUTO 28004KT 10SM SCT017 OVC033 03/01 A2991 RMK AO2 =
2018-04-26 04:56 METAR KBTP 260856Z AUTO 30005KT 10SM OVC015 03/01 A2990 RMK AO2 SLP134 T00330006
                 53005 =
2018-04-26 03:56 METAR KBTP 260756Z AUTO 29008KT 10SM OVC015 04/01 A2988 RMK AO2 SLP129 T00390011
                 =
2018-04-26 02:56 METAR KBTP 260656Z AUTO 31005KT 10SM OVC013 04/02 A2988 RMK AO2 SLP127 T00440017
                 =
2018-04-26 01:56 METAR KBTP 260556Z AUTO 30006KT 10SM OVC013 04/02 A2988 RMK AO2 SLP129 T00440022
                 10078 20044 56010 =
2018-04-26 00:56 METAR KBTP 260456Z AUTO 29003KT 10SM OVC013 05/03 A2989 RMK AO2 SLP131 T00500028
                 401330050 =
2018-04-26 00:10 METAR KBTP 260410Z AUTO 29005KT 10SM OVC013 05/03 A2989 RMK AO2 =
2018-04-25 23:56 METAR KBTP 260356Z AUTO 32006KT 10SM OVC015 06/03 A2989 RMK AO2 SLP132 T00560028
                 =
2018-04-25 22:56 METAR KBTP 260256Z AUTO VRB06KT 10SM OVC017 06/03 A2991 RMK AO2 SLP138 T00610033
                 51011 =
2018-04-25 21:56 METAR KBTP 260156Z AUTO 29007KT 10SM OVC019 07/04 A2991 RMK AO2 SLP136 T00670039
                 =
2018-04-25 20:56 METAR KBTP 260056Z AUTO 32008KT 280V360 10SM OVC019 07/04 A2990 RMK AO2 SLP134
                 T00720044 =
2018-04-25 19:56 METAR KBTP 252356Z AUTO 29011G17KT 10SM OVC017 08/05 A2988 RMK AO2 SLP127 60004
                 T00780050 10128 20078 53019 =
2018-04-25 18:56 METAR KBTP 252256Z AUTO 30012G22KT 270V350 10SM OVC015 09/06 A2986 RMK AO2
                 SLP120 P0001 T00890061 =
2018-04-25 18:49 METAR KBTP 252249Z AUTO 31013G22KT 10SM FEW010 OVC015 09/07 A2986 RMK AO2 P0001
                 =
2018-04-25 18:17 METAR KBTP 252217Z AUTO 31011G17KT 10SM OVC010 10/08 A2985 RMK AO2 =
2018-04-25 17:56 METAR KBTP 252156Z AUTO 30007G15KT 10SM OVC008 11/09 A2984 RMK AO2 RAB27E40
                 SLP112 P0000 T01060089 =
2018-04-25 17:32 METAR KBTP 252132Z AUTO 30008G14KT 270V330 5SM -RA BR OVC008 11/09 A2983 RMK AO2
                 RAB27 CIG 007V013 P0000 =
2018-04-25 17:12 METAR KBTP 252112Z AUTO VRB05KT 9SM OVC010 11/09 A2982 RMK AO2 CIG 007V014 =
2018-04-25 16:56 METAR KBTP 252056Z AUTO 33008G16KT 10SM BKN008 OVC019 12/10 A2982 RMK AO2 RAE47
                 CIG 006V012 SLP105 P0001 60003 T01170100 53003 =

Support USWX by starting your Amazon purchase here.